createdAt,value
2024-05-09T00:02:23.310Z,3.40
2024-05-09T00:04:53.285Z,4.07
2024-05-09T00:07:23.219Z,3.37
2024-05-09T00:09:55.520Z,3.50
2024-05-09T00:12:25.382Z,3.93
2024-05-09T00:14:55.202Z,3.80
2024-05-09T00:17:25.043Z,3.70
2024-05-09T00:19:54.984Z,3.90
2024-05-09T00:22:24.740Z,3.90
2024-05-09T00:24:57.075Z,3.80
2024-05-09T00:27:26.780Z,4.57
2024-05-09T00:29:56.481Z,4.10
2024-05-09T00:32:26.403Z,3.60
2024-05-09T00:34:56.452Z,4.03
2024-05-09T00:37:26.287Z,3.50
2024-05-09T00:39:58.648Z,4.27
2024-05-09T00:42:28.354Z,3.50
2024-05-09T00:44:58.058Z,3.87
2024-05-09T00:47:27.879Z,3.87
2024-05-09T00:49:57.660Z,4.37
2024-05-09T00:52:27.459Z,3.70
2024-05-09T00:54:59.799Z,4.13
2024-05-09T00:57:29.779Z,4.20
2024-05-09T00:59:59.482Z,4.50
2024-05-09T01:02:32.691Z,4.07
2024-05-09T01:05:02.845Z,3.90
2024-05-09T01:07:32.623Z,3.93
2024-05-09T01:10:09.172Z,4.13
2024-05-09T01:12:41.519Z,4.50
2024-05-09T01:15:11.318Z,4.43
2024-05-09T01:17:41.201Z,4.70
2024-05-09T01:20:19.727Z,4.60
2024-05-09T01:22:52.723Z,4.53
2024-05-09T01:25:25.095Z,4.73
2024-05-09T01:27:54.810Z,4.77
2024-05-09T01:30:31.738Z,5.20
2024-05-09T01:33:05.695Z,4.30
2024-05-09T01:35:37.025Z,4.73
2024-05-09T01:38:07.429Z,4.57
2024-05-09T01:40:40.685Z,5.03
2024-05-09T01:43:11.603Z,5.00
2024-05-09T01:45:41.953Z,4.87
2024-05-09T01:48:12.082Z,4.93
2024-05-09T01:50:43.194Z,5.00
2024-05-09T01:53:14.289Z,5.60
2024-05-09T01:55:47.406Z,4.80
2024-05-09T01:58:17.217Z,5.20
2024-05-09T02:00:47.058Z,4.73
2024-05-09T02:03:17.936Z,5.17
2024-05-09T02:05:49.707Z,4.80
2024-05-09T02:08:20.379Z,4.73
2024-05-09T02:10:53.048Z,5.00
2024-05-09T02:13:22.771Z,4.57
2024-05-09T02:15:52.957Z,4.80
2024-05-09T02:18:23.306Z,5.10
2024-05-09T02:20:53.129Z,4.63
2024-05-09T02:23:22.868Z,4.37
2024-05-09T02:25:55.242Z,4.80
2024-05-09T02:28:24.926Z,4.70
2024-05-09T02:30:54.667Z,4.80
2024-05-09T02:33:24.558Z,4.33
2024-05-09T02:35:54.444Z,4.80
2024-05-09T02:38:21.617Z,5.10
2024-05-09T02:40:51.375Z,4.83
2024-05-09T02:43:21.141Z,4.80
2024-05-09T02:45:50.865Z,4.83
2024-05-09T02:48:18.172Z,5.00
2024-05-09T02:50:48.008Z,5.10
2024-05-09T02:53:15.222Z,5.07
2024-05-09T02:55:45.061Z,5.00
2024-05-09T02:58:12.365Z,5.37
2024-05-09T03:00:44.808Z,5.43
2024-05-09T03:03:14.310Z,5.70
2024-05-09T03:05:45.667Z,5.70
2024-05-09T03:08:13.239Z,5.27
2024-05-09T03:10:43.278Z,5.30
2024-05-09T03:13:12.234Z,5.23
2024-05-09T03:15:45.722Z,5.23
2024-05-09T03:18:13.432Z,5.17
2024-05-09T03:20:44.242Z,5.83
2024-05-09T03:23:11.786Z,5.57
2024-05-09T03:25:41.596Z,5.20
2024-05-09T03:28:08.684Z,5.43
2024-05-09T03:30:42.035Z,5.23
2024-05-09T03:33:15.393Z,5.43
2024-05-09T03:35:45.977Z,5.57
2024-05-09T03:38:15.977Z,5.53
2024-05-09T03:40:49.392Z,5.33
2024-05-09T03:43:20.040Z,5.90
2024-05-09T03:45:50.939Z,5.50
2024-05-09T03:48:20.849Z,5.33
2024-05-09T03:50:50.841Z,6.03
2024-05-09T03:53:18.054Z,5.40
2024-05-09T03:55:47.919Z,5.03
2024-05-09T03:58:15.023Z,5.67
2024-05-09T04:00:44.882Z,5.27
2024-05-09T04:03:13.218Z,6.07
2024-05-09T04:05:46.189Z,5.40
2024-05-09T04:08:14.118Z,5.80
2024-05-09T04:10:44.121Z,5.30
2024-05-09T04:13:11.379Z,5.30
2024-05-09T04:15:41.116Z,4.90
2024-05-09T04:18:08.521Z,5.27
2024-05-09T04:20:40.579Z,5.50
2024-05-09T04:23:12.125Z,5.47
2024-05-09T04:25:45.006Z,5.63
2024-05-09T04:28:16.221Z,5.07
2024-05-09T04:30:43.648Z,5.83
2024-05-09T04:33:14.692Z,5.37
2024-05-09T04:35:43.054Z,5.07
2024-05-09T04:38:16.176Z,6.00
2024-05-09T04:40:43.647Z,6.33
2024-05-09T04:43:17.341Z,5.67
2024-05-09T04:45:44.693Z,6.40
2024-05-09T04:48:14.599Z,6.57
2024-05-09T04:50:44.608Z,6.90
2024-05-09T04:53:15.597Z,6.53
2024-05-09T04:55:45.686Z,6.90
2024-05-09T04:58:12.989Z,6.67
2024-05-09T05:00:42.871Z,6.27
2024-05-09T05:03:13.661Z,6.27
2024-05-09T05:05:46.151Z,6.20
2024-05-09T05:08:17.777Z,6.37
2024-05-09T05:10:49.321Z,6.50
2024-05-09T05:13:18.371Z,6.30
2024-05-09T05:15:48.861Z,6.60
2024-05-09T05:18:16.429Z,6.63
2024-05-09T05:20:46.647Z,7.00
2024-05-09T05:23:18.340Z,6.53
2024-05-09T05:25:48.445Z,7.27
2024-05-09T05:28:16.135Z,6.97
2024-05-09T05:30:45.956Z,7.37
2024-05-09T05:33:13.789Z,7.87
2024-05-09T05:35:43.871Z,6.47
2024-05-09T05:38:11.331Z,7.17
2024-05-09T05:40:44.043Z,7.57
2024-05-09T05:43:17.047Z,6.77
2024-05-09T05:45:46.762Z,7.30
2024-05-09T05:48:16.693Z,7.07
2024-05-09T05:50:47.111Z,7.10
2024-05-09T05:53:14.422Z,7.03
2024-05-09T05:55:46.880Z,6.27
2024-05-09T05:58:14.924Z,6.53
2024-05-09T06:00:44.873Z,5.80
2024-05-09T06:03:12.769Z,6.47
2024-05-09T06:05:43.994Z,6.33
2024-05-09T06:08:11.743Z,6.10
2024-05-09T06:10:42.095Z,5.57
2024-05-09T06:13:13.005Z,5.50
2024-05-09T06:15:43.966Z,5.30
2024-05-09T06:18:12.361Z,5.60
2024-05-09T06:20:43.814Z,6.00
2024-05-09T06:23:11.794Z,4.93
2024-05-09T06:25:42.520Z,4.80
2024-05-09T06:28:12.553Z,4.97
2024-05-09T06:30:43.251Z,5.07
2024-05-09T06:33:12.784Z,4.73
2024-05-09T06:35:44.738Z,5.00
2024-05-09T06:38:12.414Z,4.67
2024-05-09T06:40:43.984Z,4.53
2024-05-09T06:43:16.332Z,4.60
2024-05-09T06:45:49.077Z,4.10
2024-05-09T06:48:17.898Z,4.37
2024-05-09T06:50:47.930Z,4.17
2024-05-09T06:53:15.510Z,4.53
2024-05-09T06:55:45.371Z,4.40
2024-05-09T06:58:15.135Z,3.73
2024-05-09T07:00:45.072Z,4.03
2024-05-09T07:03:14.844Z,3.70
2024-05-09T07:05:48.009Z,3.27
2024-05-09T07:08:16.495Z,3.83
2024-05-09T07:10:46.567Z,3.93
2024-05-09T07:13:16.491Z,3.20
2024-05-09T07:15:46.295Z,3.40
2024-05-09T07:18:15.844Z,3.83
2024-05-09T07:20:47.156Z,2.83
2024-05-09T07:23:14.790Z,2.90
2024-05-09T07:25:44.684Z,2.90
2024-05-09T07:28:13.095Z,2.97
2024-05-09T07:30:45.392Z,2.70
2024-05-09T07:33:16.391Z,2.67
2024-05-09T07:35:46.275Z,3.27
2024-05-09T07:38:13.607Z,2.70
2024-05-09T07:40:43.596Z,2.90
2024-05-09T07:43:11.764Z,2.63
2024-05-09T07:45:50.548Z,2.83
2024-05-09T07:52:39.309Z,3.13
2024-05-09T07:53:47.222Z,3.27
2024-05-09T07:56:22.707Z,2.80
2024-05-09T07:58:51.451Z,2.93
2024-05-09T08:01:21.535Z,3.00
2024-05-09T08:03:51.839Z,2.90
2024-05-09T08:06:21.790Z,3.30
2024-05-09T08:08:48.974Z,2.50
2024-05-09T08:11:19.779Z,3.47
2024-05-09T08:13:46.931Z,3.00
2024-05-09T08:16:17.061Z,2.90
2024-05-09T08:18:44.419Z,3.07
2024-05-09T08:21:16.820Z,3.53
2024-05-09T08:23:43.950Z,3.63
2024-05-09T08:26:13.683Z,3.47
2024-05-09T08:28:40.785Z,2.90
2024-05-09T08:31:11.705Z,3.33
2024-05-09T08:33:44.485Z,3.17
2024-05-09T08:36:17.086Z,2.87
2024-05-09T08:38:44.237Z,3.93
2024-05-09T08:41:16.400Z,3.30
2024-05-09T08:43:43.630Z,3.63
2024-05-09T08:46:14.382Z,3.37
2024-05-09T08:48:43.361Z,4.07
2024-05-09T08:51:16.174Z,3.20
2024-05-09T08:53:45.895Z,3.70
2024-05-09T08:56:13.036Z,3.20
2024-05-09T08:58:42.764Z,3.87
2024-05-09T09:01:10.065Z,3.50
2024-05-09T09:03:40.304Z,3.70
2024-05-09T09:06:08.930Z,3.70
2024-05-09T09:08:41.970Z,4.00
2024-05-09T09:11:09.229Z,3.87
2024-05-09T09:13:38.926Z,4.10
2024-05-09T09:16:06.902Z,4.13
2024-05-09T09:18:36.882Z,4.63
2024-05-09T09:21:04.442Z,3.97
2024-05-09T09:23:34.131Z,4.17
2024-05-09T09:26:04.074Z,3.97
2024-05-09T09:28:33.775Z,3.80
2024-05-09T09:31:04.489Z,4.37
2024-05-09T09:33:36.290Z,4.23
2024-05-09T09:36:05.829Z,4.53
2024-05-09T09:38:36.567Z,3.77
2024-05-09T09:41:07.579Z,4.20
2024-05-09T09:43:37.674Z,4.73
2024-05-09T09:46:07.232Z,5.00
2024-05-09T09:48:38.469Z,5.03
2024-05-09T09:51:06.195Z,3.93
2024-05-09T09:53:38.457Z,4.60
2024-05-09T09:56:08.473Z,5.43
2024-05-09T09:58:38.266Z,4.67
2024-05-09T10:01:05.610Z,5.23
2024-05-09T10:03:35.601Z,4.87
2024-05-09T10:06:03.036Z,4.93
2024-05-09T10:08:32.788Z,4.63
2024-05-09T10:10:59.999Z,4.67
2024-05-09T10:13:38.535Z,4.07
2024-05-09T10:16:09.893Z,4.30
2024-05-09T10:18:40.323Z,4.50
2024-05-09T10:21:17.004Z,4.10
2024-05-09T10:23:47.195Z,4.50
2024-05-09T10:26:14.326Z,4.63
2024-05-09T10:28:47.776Z,4.33
2024-05-09T10:31:15.795Z,3.80
2024-05-09T10:33:49.706Z,4.37
2024-05-09T10:36:19.979Z,4.47
2024-05-09T10:38:49.775Z,4.20
2024-05-09T10:41:16.980Z,4.03
2024-05-09T10:43:49.369Z,4.50
2024-05-09T10:46:16.957Z,4.07
2024-05-09T10:48:46.972Z,3.90
2024-05-09T10:51:14.222Z,4.10
2024-05-09T10:53:44.993Z,4.53
2024-05-09T10:56:13.102Z,3.93
2024-05-09T10:58:42.928Z,3.57
2024-05-09T11:01:13.451Z,4.17
2024-05-09T11:03:43.747Z,3.67
2024-05-09T11:06:11.426Z,3.90
2024-05-09T11:08:41.236Z,3.27
2024-05-09T11:11:08.939Z,3.70
2024-05-09T11:13:39.549Z,3.67
2024-05-09T11:16:07.591Z,3.60
2024-05-09T11:18:40.639Z,3.73
2024-05-09T11:21:12.211Z,3.77
2024-05-09T11:23:42.076Z,4.03
2024-05-09T11:26:10.496Z,4.40
2024-05-09T11:28:40.276Z,4.63
2024-05-09T11:31:08.552Z,4.30
2024-05-09T11:33:42.204Z,4.23
2024-05-09T11:36:09.726Z,3.57
2024-05-09T11:38:39.464Z,3.40
2024-05-09T11:41:06.703Z,3.53
2024-05-09T11:43:36.460Z,3.43
2024-05-09T11:46:04.302Z,3.90
2024-05-09T11:48:34.491Z,4.73
2024-05-09T11:51:04.712Z,3.80
2024-05-09T11:53:34.470Z,4.20
2024-05-09T11:56:01.606Z,3.93
2024-05-09T11:58:34.469Z,3.90
2024-05-09T12:01:02.153Z,3.63
2024-05-09T12:03:32.504Z,3.47
2024-05-09T12:05:59.995Z,3.57
2024-05-09T12:08:32.631Z,3.20
2024-05-09T12:10:59.915Z,3.40
2024-05-09T12:13:29.928Z,4.03
2024-05-09T12:15:57.104Z,3.30
2024-05-09T12:18:26.878Z,3.55
2024-05-09T12:20:54.103Z,3.28
2024-05-09T12:23:23.878Z,3.42
2024-05-09T12:25:53.673Z,3.38
2024-05-09T12:28:23.577Z,3.55
2024-05-09T12:30:50.895Z,3.42
2024-05-09T12:33:21.766Z,3.17
2024-05-09T12:35:50.932Z,3.13
2024-05-09T12:38:21.248Z,3.35
2024-05-09T12:40:48.432Z,3.45
2024-05-09T12:43:20.853Z,3.13
2024-05-09T12:45:48.106Z,3.30
2024-05-09T12:48:18.027Z,3.45
2024-05-09T12:50:45.304Z,3.08
2024-05-09T12:53:15.178Z,3.03
2024-05-09T12:55:48.987Z,3.65
2024-05-09T12:58:28.827Z,3.70
2024-05-09T13:00:56.067Z,3.50
2024-05-09T13:03:25.949Z,3.83
2024-05-09T13:05:53.174Z,3.00
2024-05-09T13:08:23.017Z,4.10
2024-05-09T13:10:50.451Z,3.55
2024-05-09T13:13:20.359Z,3.22
2024-05-09T13:15:50.348Z,3.38
2024-05-09T13:18:20.283Z,4.05
2024-05-09T13:20:47.461Z,3.72
2024-05-09T13:23:17.160Z,3.42
2024-05-09T13:25:44.356Z,3.38
2024-05-09T13:28:14.067Z,2.95
2024-05-09T13:30:42.378Z,3.35
2024-05-09T13:33:15.553Z,2.83
2024-05-09T13:35:47.246Z,3.15
2024-05-09T13:38:20.937Z,3.10
2024-05-09T13:40:49.045Z,3.22
2024-05-09T13:43:19.411Z,3.03
2024-05-09T13:45:46.745Z,3.03
2024-05-09T13:48:19.889Z,3.55
2024-05-09T13:50:47.295Z,3.05
2024-05-09T13:53:17.067Z,2.83
2024-05-09T13:55:44.156Z,3.13
2024-05-09T13:58:13.881Z,2.78
2024-05-09T14:00:46.627Z,3.00
2024-05-09T14:03:21.487Z,2.50
2024-05-09T14:05:50.141Z,3.28
2024-05-09T14:08:22.542Z,2.90
2024-05-09T14:10:50.480Z,2.88
2024-05-09T14:13:20.419Z,3.15
2024-05-09T14:15:47.786Z,2.67
2024-05-09T14:18:20.201Z,3.05
2024-05-09T14:20:47.412Z,3.13
2024-05-09T14:23:17.629Z,2.75
2024-05-09T14:25:46.566Z,2.83
2024-05-09T14:28:19.255Z,3.10
2024-05-09T14:30:46.534Z,3.15
2024-05-09T14:33:20.672Z,3.00
2024-05-09T14:35:50.470Z,3.13
2024-05-09T14:38:20.173Z,2.78
2024-05-09T14:40:47.379Z,3.55
2024-05-09T14:43:17.397Z,2.53
2024-05-09T14:45:44.719Z,2.97
2024-05-09T14:48:17.210Z,3.10
2024-05-09T14:50:44.454Z,2.90
2024-05-09T14:53:16.859Z,3.00
2024-05-09T14:55:44.227Z,3.00
2024-05-09T14:58:14.276Z,3.40
2024-05-09T15:00:46.248Z,3.53
2024-05-09T15:03:20.642Z,3.80
2024-05-09T15:05:48.746Z,3.30
2024-05-09T15:08:21.170Z,2.87
2024-05-09T15:10:52.131Z,3.80
2024-05-09T15:13:19.844Z,3.23
2024-05-09T15:15:49.827Z,3.27
2024-05-09T15:18:17.259Z,3.53
2024-05-09T15:20:47.527Z,3.27
2024-05-09T15:23:17.350Z,3.17
2024-05-09T15:25:47.325Z,2.90
2024-05-09T15:28:14.646Z,3.10
2024-05-09T15:30:46.547Z,3.60
2024-05-09T15:33:14.363Z,3.87
2024-05-09T15:35:46.611Z,3.13
2024-05-09T15:38:14.383Z,3.40
2024-05-09T15:40:47.190Z,2.90
2024-05-09T15:43:14.583Z,4.00
2024-05-09T15:45:44.398Z,3.20
2024-05-09T15:48:11.934Z,3.07
2024-05-09T15:50:42.770Z,2.90
2024-05-09T15:53:11.350Z,3.10
2024-05-09T15:55:42.096Z,3.50
2024-05-09T15:58:12.502Z,2.70
2024-05-09T16:00:44.164Z,2.93
2024-05-09T16:03:13.970Z,3.17
2024-05-09T16:05:46.357Z,3.20
2024-05-09T16:08:14.622Z,3.23
2024-05-09T16:10:46.160Z,3.13
2024-05-09T16:13:17.556Z,3.40
2024-05-09T16:15:47.759Z,2.80
2024-05-09T16:18:15.142Z,3.17
2024-05-09T16:20:47.258Z,3.40
2024-05-09T16:23:16.380Z,3.87
2024-05-09T16:25:48.274Z,3.00
2024-05-09T16:28:18.681Z,3.00
2024-05-09T16:30:48.622Z,3.33
2024-05-09T16:33:19.355Z,3.30
2024-05-09T16:35:49.739Z,3.00
2024-05-09T16:38:16.929Z,3.20
2024-05-09T16:40:46.842Z,3.27
2024-05-09T16:43:14.198Z,2.83
2024-05-09T16:45:46.739Z,3.37
2024-05-09T16:48:14.365Z,2.97
2024-05-09T16:50:44.280Z,3.27
2024-05-09T16:53:11.522Z,2.73
2024-05-09T16:55:41.219Z,2.80
2024-05-09T16:58:08.679Z,3.00
2024-05-09T17:00:42.395Z,3.13
2024-05-09T17:03:15.050Z,3.00
2024-05-09T17:05:47.234Z,3.53
2024-05-09T17:08:15.661Z,3.60
2024-05-09T17:10:45.738Z,3.03
2024-05-09T17:13:15.697Z,3.43
2024-05-09T17:15:45.484Z,3.30
2024-05-09T17:18:18.104Z,3.20
2024-05-09T17:20:47.888Z,3.10
2024-05-09T17:23:15.284Z,3.33
2024-05-09T17:25:45.223Z,3.30
2024-05-09T17:28:12.565Z,2.80
2024-05-09T17:30:43.021Z,2.80
2024-05-09T17:33:11.336Z,3.13
2024-05-09T17:35:46.150Z,3.80
2024-05-09T17:38:13.392Z,3.17
2024-05-09T17:40:43.192Z,3.50
2024-05-09T17:43:11.078Z,3.10
2024-05-09T17:45:41.892Z,3.10
2024-05-09T17:48:10.636Z,3.37
2024-05-09T17:50:41.981Z,3.20
2024-05-09T17:53:12.016Z,3.40
2024-05-09T17:55:42.711Z,2.90
2024-05-09T17:58:10.380Z,3.07
2024-05-09T18:00:42.340Z,3.67
2024-05-09T18:03:11.355Z,3.13
2024-05-09T18:05:43.111Z,3.70
2024-05-09T18:08:14.121Z,3.13
2024-05-09T18:10:44.629Z,3.77
2024-05-09T18:13:12.750Z,2.90
2024-05-09T18:15:43.149Z,3.23
2024-05-09T18:18:11.155Z,3.60
2024-05-09T18:20:44.829Z,3.10
2024-05-09T18:23:18.038Z,3.10
2024-05-09T18:25:48.699Z,3.40
2024-05-09T18:28:16.447Z,3.43
2024-05-09T18:30:46.838Z,3.40
2024-05-09T18:33:14.295Z,3.03
2024-05-09T18:35:45.214Z,3.30
2024-05-09T18:38:15.361Z,3.73
2024-05-09T18:40:48.316Z,3.20
2024-05-09T18:43:16.974Z,3.13
2024-05-09T18:45:47.481Z,3.23
2024-05-09T18:48:15.436Z,3.90
2024-05-09T18:50:45.475Z,3.93
2024-05-09T18:53:16.224Z,3.37
2024-05-09T18:55:46.031Z,3.20
2024-05-09T18:58:13.285Z,3.33
2024-05-09T19:00:45.474Z,3.33
2024-05-09T19:03:15.680Z,3.63
2024-05-09T19:05:46.483Z,3.60
2024-05-09T19:08:16.597Z,3.33
2024-05-09T19:10:47.564Z,3.50
2024-05-09T19:13:15.113Z,3.40
2024-05-09T19:15:45.352Z,3.50
2024-05-09T19:18:13.224Z,4.10
2024-05-09T19:20:43.907Z,4.00
2024-05-09T19:23:11.903Z,3.40
2024-05-09T19:25:44.427Z,3.63
2024-05-09T19:28:11.672Z,3.37
2024-05-09T19:30:42.768Z,3.50
2024-05-09T19:33:11.777Z,3.53
2024-05-09T19:35:42.968Z,3.40
2024-05-09T19:38:10.510Z,3.50
2024-05-09T19:40:40.445Z,4.47
2024-05-09T19:43:11.228Z,3.77
2024-05-09T19:45:41.226Z,3.77
2024-05-09T19:48:08.858Z,4.17
2024-05-09T19:50:43.236Z,4.20
2024-05-09T19:53:12.393Z,3.87
2024-05-09T19:55:42.491Z,4.00
2024-05-09T19:58:12.963Z,4.47
2024-05-09T20:00:44.385Z,4.00
2024-05-09T20:03:12.547Z,4.03
2024-05-09T20:05:42.810Z,4.10
2024-05-09T20:08:10.116Z,4.23
2024-05-09T20:10:40.147Z,4.30
2024-05-09T20:13:08.257Z,4.20
2024-05-09T20:15:41.281Z,3.73
2024-05-09T20:18:08.541Z,4.37
2024-05-09T20:20:41.799Z,3.93
2024-05-09T20:23:11.241Z,3.83
2024-05-09T20:25:41.114Z,4.37
2024-05-09T20:28:08.393Z,3.80
2024-05-09T20:30:40.976Z,3.63
2024-05-09T20:33:09.483Z,3.37
2024-05-09T20:35:39.830Z,3.20
2024-05-09T20:38:07.072Z,3.63
2024-05-09T20:40:39.057Z,4.33
2024-05-09T20:43:07.884Z,5.03
2024-05-09T20:45:40.968Z,4.73
2024-05-09T20:48:09.209Z,3.27
2024-05-09T20:50:41.915Z,3.60
2024-05-09T20:53:10.673Z,3.77
2024-05-09T20:55:40.785Z,3.43
2024-05-09T20:58:08.418Z,3.80
2024-05-09T21:00:44.002Z,3.80
2024-05-09T21:03:13.599Z,3.73
2024-05-09T21:05:44.480Z,4.17
2024-05-09T21:08:11.719Z,4.53
2024-05-09T21:10:42.541Z,4.37
2024-05-09T21:13:09.786Z,4.50
2024-05-09T21:15:42.212Z,4.00
2024-05-09T21:18:09.460Z,4.53
2024-05-09T21:20:39.308Z,3.90
2024-05-09T21:23:06.395Z,3.97
2024-05-09T21:25:36.142Z,4.07
2024-05-09T21:28:03.782Z,3.97
2024-05-09T21:30:41.245Z,3.80
2024-05-09T21:33:14.234Z,4.23
2024-05-09T21:35:45.222Z,4.30
2024-05-09T21:38:14.205Z,3.73
2024-05-09T21:40:44.952Z,4.10
2024-05-09T21:43:12.554Z,4.37
2024-05-09T21:45:42.567Z,4.30
2024-05-09T21:48:12.585Z,4.70
2024-05-09T21:50:42.752Z,4.50
2024-05-09T21:53:10.530Z,4.63
2024-05-09T21:55:40.439Z,5.27
2024-05-09T21:58:07.581Z,5.40
2024-05-09T22:00:39.440Z,5.10
2024-05-09T22:03:07.963Z,4.23
2024-05-09T22:05:43.857Z,5.43
2024-05-09T22:08:11.294Z,5.00
2024-05-09T22:10:41.182Z,5.40
2024-05-09T22:13:08.887Z,5.20
2024-05-09T22:15:40.239Z,5.37
2024-05-09T22:18:08.971Z,5.13
2024-05-09T22:20:45.756Z,5.20
2024-05-09T22:23:13.917Z,5.40
2024-05-09T22:25:43.961Z,5.60
2024-05-09T22:28:12.782Z,6.40
2024-05-09T22:30:44.103Z,5.93
2024-05-09T22:33:12.229Z,5.30
2024-05-09T22:35:45.465Z,6.17
2024-05-09T22:38:12.731Z,5.57
2024-05-09T22:40:47.846Z,6.27
2024-05-09T22:43:18.580Z,6.30
2024-05-09T22:45:49.106Z,6.20
2024-05-09T22:48:16.440Z,6.13
2024-05-09T22:50:48.916Z,5.73
2024-05-09T22:53:16.062Z,6.30
2024-05-09T22:55:45.826Z,5.57
2024-05-09T22:58:13.109Z,5.97
2024-05-09T23:00:43.023Z,6.23
2024-05-09T23:03:10.271Z,5.87
2024-05-09T23:05:40.076Z,5.80
2024-05-09T23:08:10.557Z,6.20
2024-05-09T23:10:40.301Z,6.20
2024-05-09T23:13:08.244Z,6.17
2024-05-09T23:15:39.280Z,6.27
2024-05-09T23:18:06.945Z,5.97
2024-05-09T23:20:39.345Z,6.43
2024-05-09T23:23:11.377Z,6.07
2024-05-09T23:25:42.111Z,6.83
2024-05-09T23:28:12.104Z,5.90
2024-05-09T23:30:41.022Z,6.13
2024-05-09T23:33:13.329Z,6.10
2024-05-09T23:35:41.577Z,5.47
2024-05-09T23:38:13.891Z,6.20
2024-05-09T23:40:42.341Z,6.37
2024-05-09T23:43:13.250Z,5.77
2024-05-09T23:45:40.914Z,5.80
2024-05-09T23:48:11.615Z,5.50
2024-05-09T23:50:40.316Z,6.13
2024-05-09T23:53:14.405Z,5.80
2024-05-09T23:55:41.699Z,6.20
2024-05-09T23:58:11.803Z,5.73
